Time;durP1;ratioP1;P1;durP2;ratioP2;P2;SDS_P1;SDS_P2;PMS_P1;PMS_P2;Temp;Humidity;BMP_temperature;BMP_pressure;BME280_temperature;BME280_humidity;BME280_pressure;Samples;Min_cycle;Max_cycle;Signal;HPM_P1;HPM_P2
2022/01/01 03:09:59;;;;;;;;;;;;;;;20.90;37.77;100851.44;98435;1379;61300;-83
2022/01/01 03:12:35;;;;;;;;;;;;;;;;;;;;;
2022/01/01 03:15:11;;;;;;;;;;;;;;;;;;;;;
2022/01/01 03:17:37;;;;;;;;;;;;;;;20.90;37.73;100852.20;98945;1372;75023;-81
2022/01/01 03:20:25;;;;;;;;;;;;;;;20.90;37.77;100846.80;99642;1359;61229;-82
2022/01/01 03:23:08;;;;;;;;;;;;;;;20.90;37.84;100842.52;100244;1358;61668;-82
2022/01/01 03:25:41;;;;;;;;;;;;;;;20.90;37.83;100845.54;100271;1358;73974;-82
2022/01/01 03:28:36;;;;;;;;;;;;;;;20.90;37.82;100849.68;100364;1355;76191;-82
2022/01/01 03:31:23;;;;;;;;;;;;;;;;;;;;;
2022/01/01 03:33:48;;;;;;;;;;;;;;;20.90;38.03;100857.52;101004;1344;61142;-82
2022/01/01 03:36:27;;;;;;;;;;;;;;;20.90;38.02;100860.02;101334;1344;73581;-82
2022/01/01 03:39:00;;;;;;;;;;;;;;;20.91;37.77;100858.55;101401;1349;74949;-83
2022/01/01 03:41:28;;;;;;;;;;;;;;;20.91;37.98;100852.47;101273;1344;61269;-82
2022/01/01 03:44:16;;;;;;;;;;;;;;;20.91;37.80;100851.91;101322;1344;61252;-82
2022/01/01 03:46:44;;;;;;;;;;;;;;;20.91;37.79;100854.08;101341;1349;72903;-82
2022/01/01 03:49:13;;;;;;;;;;;;;;;20.91;38.03;100859.45;101321;1349;74912;-82
2022/01/01 03:51:46;;;;;;;;;;;;;;;20.91;37.89;100855.86;101282;1344;61148;-82
2022/01/01 03:54:44;;;;;;;;;;;;;;;20.91;37.87;100859.08;101308;1349;61073;-82
2022/01/01 03:57:26;;;;;;;;;;;;;;;20.91;37.79;100859.27;101189;1344;71919;-82
2022/01/01 03:59:57;;;;;;;;;;;;;;;20.91;37.75;100862.84;101396;1347;75586;-82
2022/01/01 04:02:34;;;;;;;;;;;;;;;20.90;37.84;100865.73;101323;1344;61453;-83
2022/01/01 04:05:04;;;;;;;;;;;;;;;20.92;37.88;100862.43;101371;1341;61308;-83
2022/01/01 04:07:48;;;;;;;;;;;;;;;20.92;37.96;100860.65;101407;1344;73581;-83
2022/01/01 04:10:34;;;;;;;;;;;;;;;20.91;37.91;100856.55;100949;1350;74982;-83
2022/01/01 04:13:09;;;;;;;;;;;;;;;20.91;38.00;100850.83;101434;1345;61166;-82
2022/01/01 04:15:35;;;;;;;;;;;;;;;20.92;37.80;100848.85;101410;1345;61263;-83
2022/01/01 04:18:08;;;;;;;;;;;;;;;20.91;37.95;100845.98;101383;1349;61256;-83
2022/01/01 04:20:38;;;;;;;;;;;;;;;20.92;37.80;100848.29;101390;1341;74784;-83
2022/01/01 04:23:20;;;;;;;;;;;;;;;20.92;37.89;100865.48;101310;1350;61219;-83
2022/01/01 04:26:07;;;;;;;;;;;;;;;20.92;37.83;100871.21;101392;1341;61089;-83
2022/01/01 04:28:48;;;;;;;;;;;;;;;20.91;37.96;100871.58;101373;1342;73683;-82
2022/01/01 04:31:15;;;;;;;;;;;;;;;20.92;37.81;100865.83;101414;1348;75529;-82
2022/01/01 04:33:51;;;;;;;;;;;;;;;;;;;;;
2022/01/01 04:36:29;;;;;;;;;;;;;;;20.92;38.00;100853.84;101418;1344;61261;-82
2022/01/01 04:38:54;;;;;;;;;;;;;;;20.91;37.77;100847.07;100780;1347;72756;-82
2022/01/01 04:41:22;;;;;;;;;;;;;;;20.91;37.95;100839.20;101363;1349;61416;-82
2022/01/01 04:43:48;;;;;;;;;;;;;;;20.91;37.91;100830.13;101352;1347;61307;-82
2022/01/01 04:46:16;;;;;;;;;;;;;;;20.91;37.93;100834.02;101364;1349;61385;-82
2022/01/01 04:48:42;;;;;;;;;;;;;;;20.91;37.77;100827.94;101415;1342;61347;-82
2022/01/01 04:51:54;;;;;;;;;;;;;;;20.91;37.79;100823.27;101374;1347;73546;-82
2022/01/01 04:54:41;;;;;;;;;;;;;;;20.91;37.73;100826.70;100974;1347;61530;-81
2022/01/01 04:57:18;;;;;;;;;;;;;;;20.91;37.84;100837.27;100845;1351;61441;-82
2022/01/01 05:00:03;;;;;;;;;;;;;;;20.91;37.82;100839.93;100793;1351;72873;-82
2022/01/01 05:02:30;;;;;;;;;;;;;;;20.92;37.75;100846.16;100663;1355;74855;-82
2022/01/01 05:05:36;;;;;;;;;;;;;;;20.92;37.92;100844.02;100683;1354;61160;-81
2022/01/01 05:08:04;;;;;;;;;;;;;;;20.91;37.94;100854.58;100797;1350;61067;-82
2022/01/01 05:10:44;;;;;;;;;;;;;;;20.92;37.73;100866.35;100663;1354;61964;-82
2022/01/01 05:13:16;;;;;;;;;;;;;;;20.92;37.77;100866.00;100762;1350;75529;-82
2022/01/01 05:15:45;;;;;;;;;;;;;;;20.91;37.86;100864.42;100651;1350;61435;-82
2022/01/01 05:18:36;;;;;;;;;;;;;;;20.92;38.02;100869.40;100605;1350;61185;-82
2022/01/01 05:21:32;;;;;;;;;;;;;;;20.92;37.90;100882.98;100777;1354;72909;-81
2022/01/01 05:24:17;;;;;;;;;;;;;;;;;;;;;
2022/01/01 05:26:49;;;;;;;;;;;;;;;20.92;37.88;100887.97;100751;1354;61258;-82
2022/01/01 05:29:37;;;;;;;;;;;;;;;20.92;37.78;100904.07;100637;1350;61286;-82
2022/01/01 05:32:30;;;;;;;;;;;;;;;20.93;37.86;100910.11;101237;1347;71548;-82
2022/01/01 05:35:06;;;;;;;;;;;;;;;20.93;37.92;100905.80;101362;1344;75799;-82
2022/01/01 05:37:43;;;;;;;;;;;;;;;;;;;;;
2022/01/01 05:40:28;;;;;;;;;;;;;;;20.93;37.90;100906.92;101348;1348;61285;-83
2022/01/01 05:42:53;;;;;;;;;;;;;;;20.92;38.02;100908.73;101392;1344;72684;-83
2022/01/01 05:45:39;;;;;;;;;;;;;;;20.93;37.94;100912.27;101311;1344;62161;-84
2022/01/01 05:48:20;;;;;;;;;;;;;;;20.92;37.95;100899.77;100768;1347;61209;-82
2022/01/01 05:50:48;;;;;;;;;;;;;;;20.93;37.88;100899.05;100770;1347;61467;-82
2022/01/01 05:53:40;;;;;;;;;;;;;;;20.92;38.08;100909.80;100761;1347;72605;-83
2022/01/01 05:56:30;;;;;;;;;;;;;;;20.93;37.77;100915.14;100655;1348;74610;-84
2022/01/01 05:59:04;;;;;;;;;;;;;;;20.93;37.90;100914.07;100075;1356;61208;-83
2022/01/01 06:01:50;;;;;;;;;;;;;;;20.93;37.85;100910.31;100182;1357;61344;-82
2022/01/01 06:04:16;;;;;;;;;;;;;;;20.93;37.89;100910.68;100006;1364;73854;-83
2022/01/01 06:06:44;;;;;;;;;;;;;;;20.92;37.91;100914.10;100034;1357;75140;-82
2022/01/01 06:09:20;;;;;;;;;;;;;;;;;;;;;
2022/01/01 06:11:46;;;;;;;;;;;;;;;20.93;37.73;100928.38;100057;1362;61341;-83
2022/01/01 06:14:22;;;;;;;;;;;;;;;20.93;37.97;100927.85;100104;1356;72822;-83
2022/01/01 06:16:48;;;;;;;;;;;;;;;20.93;37.79;100918.36;100020;1356;76295;-83
2022/01/01 06:19:25;;;;;;;;;;;;;;;;;;;;;
2022/01/01 06:22:19;;;;;;;;;;;;;;;20.92;37.90;100909.83;99799;1356;61150;-81
2022/01/01 06:24:57;;;;;;;;;;;;;;;20.93;37.79;100910.86;100072;1356;73200;-82
2022/01/01 06:27:45;;;;;;;;;;;;;;;;;;;;;
2022/01/01 06:30:14;;;;;;;;;;;;;;;20.93;37.86;100907.63;100696;1343;61195;-82
2022/01/01 06:33:06;;;;;;;;;;;;;;;20.93;37.92;100916.77;101402;1348;61138;-82
2022/01/01 06:35:35;;;;;;;;;;;;;;;20.93;37.85;100918.70;101359;1342;72628;-81
2022/01/01 06:38:20;;;;;;;;;;;;;;;20.93;37.94;100904.71;101384;1344;75698;-82
2022/01/01 06:40:46;;;;;;;;;;;;;;;20.93;37.85;100882.36;101394;1342;61209;-82
2022/01/01 06:43:21;;;;;;;;;;;;;;;20.93;38.03;100863.60;101346;1344;61311;-82
2022/01/01 06:45:50;;;;;;;;;;;;;;;20.94;38.01;100844.60;101379;1344;73621;-81
2022/01/01 06:48:23;;;;;;;;;;;;;;;20.93;37.85;100805.63;101314;1344;60816;-82
2022/01/01 06:51:00;;;;;;;;;;;;;;;;;;;;;
2022/01/01 06:53:49;;;;;;;;;;;;;;;20.93;37.82;100805.95;101351;1344;61130;-82
2022/01/01 06:56:44;;;;;;;;;;;;;;;;;;;;;
2022/01/01 06:59:20;;;;;;;;;;;;;;;20.95;37.89;100981.77;100794;1347;74851;-82
2022/01/01 07:01:46;;;;;;;;;;;;;;;20.96;37.70;100973.46;100971;1348;61573;-82
2022/01/01 07:04:31;;;;;;;;;;;;;;;20.96;37.96;100989.55;100620;1354;61423;-83
2022/01/01 07:07:24;;;;;;;;;;;;;;;20.96;37.97;101019.94;100759;1347;72875;-82
2022/01/01 07:09:49;;;;;;;;;;;;;;;20.97;37.89;101000.40;100155;1359;75540;-82
2022/01/01 07:13:01;;;;;;;;;;;;;;;20.98;37.94;100997.50;100061;1353;61132;-82
2022/01/01 07:15:57;;;;;;;;;;;;;;;;;;;;;
2022/01/01 07:18:28;;;;;;;;;;;;;;;20.98;37.84;100994.23;100232;1358;73693;-82
2022/01/01 07:21:03;;;;;;;;;;;;;;;20.99;37.80;100992.59;100149;1356;73990;-83
2022/01/01 07:23:50;;;;;;;;;;;;;;;20.99;37.87;100990.05;100103;1358;61276;-82
2022/01/01 07:26:17;;;;;;;;;;;;;;;20.99;37.82;100986.83;100152;1358;61199;-82
2022/01/01 07:29:04;;;;;;;;;;;;;;;20.99;37.87;100984.31;100142;1356;72598;-82
2022/01/01 07:31:53;;;;;;;;;;;;;;;21.00;37.99;100981.77;100179;1362;75757;-82
2022/01/01 07:34:42;;;;;;;;;;;;;;;21.00;37.87;100988.72;99517;1366;61439;-83
2022/01/01 07:37:10;;;;;;;;;;;;;;;21.00;37.81;100977.29;99595;1358;61198;-83
2022/01/01 07:40:16;;;;;;;;;;;;;;;;;;;;;
2022/01/01 07:43:02;;;;;;;;;;;;;;;21.00;37.89;100969.38;99245;1358;73045;-81
2022/01/01 07:45:35;;;;;;;;;;;;;;;21.01;37.74;100965.80;99489;1362;61217;-84
2022/01/01 07:48:05;;;;;;;;;;;;;;;21.01;37.90;100965.96;100109;1357;61180;-83
2022/01/01 07:51:08;;;;;;;;;;;;;;;21.00;37.87;100963.66;100134;1358;72978;-83
2022/01/01 07:53:34;;;;;;;;;;;;;;;21.00;37.90;100970.63;100157;1360;76061;-83
2022/01/01 07:56:12;;;;;;;;;;;;;;;;;;;;;
2022/01/01 07:58:41;;;;;;;;;;;;;;;21.00;37.84;100984.07;100066;1356;61817;-83
2022/01/01 08:01:07;;;;;;;;;;;;;;;21.00;37.82;100983.73;100209;1357;73054;-82
2022/01/01 08:03:43;;;;;;;;;;;;;;;21.00;37.80;100980.98;100045;1356;74667;-83
2022/01/01 08:06:29;;;;;;;;;;;;;;;21.01;37.90;100972.56;100362;1353;61416;-82
2022/01/01 08:09:30;;;;;;;;;;;;;;;;;;;;;
2022/01/01 08:12:03;;;;;;;;;;;;;;;21.00;38.03;100962.05;100113;1353;73822;-83
2022/01/01 08:14:38;;;;;;;;;;;;;;;21.01;37.86;100957.55;100157;1360;75986;-83
2022/01/01 08:17:18;;;;;;;;;;;;;;;;;;;;;
2022/01/01 08:20:09;;;;;;;;;;;;;;;21.01;37.81;100955.60;100402;1356;61520;-82
2022/01/01 08:22:41;;;;;;;;;;;;;;;21.01;37.85;100957.21;100608;1355;72983;-83
2022/01/01 08:25:47;;;;;;;;;;;;;;;21.00;37.91;100958.83;100537;1349;73677;-83
2022/01/01 08:28:43;;;;;;;;;;;;;;;;;;;;;
2022/01/01 08:31:51;;;;;;;;;;;;;;;;;;;;;
2022/01/01 08:34:41;;;;;;;;;;;;;;;21.01;37.88;100951.98;100658;1350;73904;-83
2022/01/01 08:37:27;;;;;;;;;;;;;;;21.02;38.05;100951.38;100407;1353;74093;-83
2022/01/01 08:39:52;;;;;;;;;;;;;;;21.02;38.01;100958.91;100671;1351;61325;-83
2022/01/01 08:42:39;;;;;;;;;;;;;;;21.02;37.94;100970.88;100708;1354;61570;-83
2022/01/01 08:45:24;;;;;;;;;;;;;;;21.02;37.84;100962.29;100553;1356;73820;-83
2022/01/01 08:48:16;;;;;;;;;;;;;;;21.03;37.98;100952.40;100669;1350;74881;-83
2022/01/01 08:50:47;;;;;;;;;;;;;;;21.02;37.84;100961.36;100685;1355;60259;-83
2022/01/01 08:53:34;;;;;;;;;;;;;;;;;;;;;
2022/01/01 08:56:19;;;;;;;;;;;;;;;;;;;;;
2022/01/01 08:59:14;;;;;;;;;;;;;;;21.03;37.96;100960.99;100679;1350;74859;-83
2022/01/01 09:01:59;;;;;;;;;;;;;;;21.02;37.78;100953.84;100664;1355;61194;-83
2022/01/01 09:04:36;;;;;;;;;;;;;;;21.04;38.12;100940.89;100705;1350;60570;-83
2022/01/01 09:07:26;;;;;;;;;;;;;;;;;;;;;
2022/01/01 09:10:13;;;;;;;;;;;;;;;21.03;37.91;100929.12;100390;1356;74713;-83
2022/01/01 09:12:39;;;;;;;;;;;;;;;21.03;37.98;100930.20;100253;1354;61491;-83
2022/01/01 09:15:05;;;;;;;;;;;;;;;21.03;38.01;100926.25;100218;1354;61737;-82
2022/01/01 09:17:57;;;;;;;;;;;;;;;21.03;37.97;100921.25;100203;1357;73858;-82
2022/01/01 09:20:22;;;;;;;;;;;;;;;21.03;38.08;100927.52;100191;1355;73671;-83
2022/01/01 09:23:08;;;;;;;;;;;;;;;21.03;38.09;100919.65;100254;1357;61417;-83
2022/01/01 09:25:54;;;;;;;;;;;;;;;21.02;38.03;100914.13;100206;1354;61407;-83
2022/01/01 09:28:19;;;;;;;;;;;;;;;21.03;38.04;100908.75;99968;1360;72647;-83
2022/01/01 09:30:45;;;;;;;;;;;;;;;21.02;38.22;100905.53;100165;1354;61382;-82
2022/01/01 09:33:33;;;;;;;;;;;;;;;21.03;38.09;100911.27;100124;1360;61232;-83
2022/01/01 09:36:29;;;;;;;;;;;;;;;;;;;;;
2022/01/01 09:38:55;;;;;;;;;;;;;;;21.03;38.07;100923.36;100127;1361;74002;-83
2022/01/01 09:41:20;;;;;;;;;;;;;;;21.02;38.11;100921.99;100187;1353;59486;-83
2022/01/01 09:43:46;;;;;;;;;;;;;;;21.03;38.19;100926.61;100089;1360;61183;-83
2022/01/01 09:46:29;;;;;;;;;;;;;;;21.03;38.18;100928.77;100033;1361;61091;-83
2022/01/01 09:48:57;;;;;;;;;;;;;;;21.03;37.98;100929.84;100165;1356;72852;-83
2022/01/01 09:51:23;;;;;;;;;;;;;;;21.03;38.12;100928.40;100235;1352;74891;-83
2022/01/01 09:54:04;;;;;;;;;;;;;;;21.03;38.21;100924.66;100386;1349;59667;-83
2022/01/01 09:56:29;;;;;;;;;;;;;;;21.03;38.19;100916.61;100420;1353;61157;-83
2022/01/01 09:59:26;;;;;;;;;;;;;;;;;;;;;
2022/01/01 10:02:03;;;;;;;;;;;;;;;;;;;;;
2022/01/01 10:04:51;;;;;;;;;;;;;;;21.03;38.20;100916.08;100347;1356;61754;-82
2022/01/01 10:07:20;;;;;;;;;;;;;;;21.03;38.21;100914.27;100344;1357;61405;-82
2022/01/01 10:09:45;;;;;;;;;;;;;;;21.03;38.17;100904.95;100378;1357;73939;-82
2022/01/01 10:12:15;;;;;;;;;;;;;;;21.04;38.30;100911.72;100401;1349;61342;-82
2022/01/01 10:15:12;;;;;;;;;;;;;;;;;;;;;
2022/01/01 10:17:47;;;;;;;;;;;;;;;21.03;38.31;100911.55;100412;1349;61074;-82
2022/01/01 10:20:30;;;;;;;;;;;;;;;21.04;38.27;100908.66;100329;1353;73776;-82
2022/01/01 10:23:07;;;;;;;;;;;;;;;;;;;;;
2022/01/01 10:29:35;;;;;;;;;;;;;;;21.04;38.26;100919.52;100356;1357;61382;-82
2022/01/01 10:32:20;;;;;;;;;;;;;;;21.04;38.21;100930.96;100295;1357;73268;-83
2022/01/01 10:34:47;;;;;;;;;;;;;;;21.05;38.38;100931.30;100274;1357;76019;-82
2022/01/01 10:37:33;;;;;;;;;;;;;;;21.05;38.33;100923.59;100473;1350;61127;-83
2022/01/01 10:40:13;;;;;;;;;;;;;;;21.06;38.10;100918.02;100599;1349;61263;-82
2022/01/01 10:42:49;;;;;;;;;;;;;;;21.05;38.36;100912.86;100452;1354;72667;-83
2022/01/01 10:45:26;;;;;;;;;;;;;;;21.05;38.31;100910.34;100569;1350;74814;-83
2022/01/01 10:48:25;;;;;;;;;;;;;;;21.05;38.35;100909.83;100594;1349;61240;-83
2022/01/01 10:51:04;;;;;;;;;;;;;;;;;;;;;
2022/01/01 10:53:37;;;;;;;;;;;;;;;21.06;38.50;100917.11;100717;1353;72903;-83
2022/01/01 10:59:21;;;;;;;;;;;;;;;21.06;38.59;100911.55;99881;1363;61058;-83
2022/01/01 11:02:07;;;;;;;;;;;;;;;21.07;38.56;100917.23;99748;1366;61268;-83
2022/01/01 11:04:52;;;;;;;;;;;;;;;21.07;38.44;100919.02;99810;1360;71644;-82
2022/01/01 11:07:35;;;;;;;;;;;;;;;21.07;38.40;100918.09;100048;1359;74267;-83
2022/01/01 11:10:00;;;;;;;;;;;;;;;21.07;38.60;100915.04;100174;1356;61362;-83
2022/01/01 11:12:32;;;;;;;;;;;;;;;21.07;38.49;100912.53;100113;1356;61366;-83
2022/01/01 11:15:07;;;;;;;;;;;;;;;21.08;38.56;100901.23;100167;1356;73049;-83
2022/01/01 11:17:47;;;;;;;;;;;;;;;21.08;38.39;100903.38;100159;1356;76128;-83
2022/01/01 11:20:13;;;;;;;;;;;;;;;21.08;38.65;100909.27;100150;1356;61353;-82
2022/01/01 11:22:42;;;;;;;;;;;;;;;21.08;38.50;100922.52;100185;1357;61519;-82
2022/01/01 11:25:35;;;;;;;;;;;;;;;21.08;38.57;100913.76;100085;1356;72902;-82
2022/01/01 11:28:09;;;;;;;;;;;;;;;21.08;38.52;100920.55;100144;1356;74725;-82
2022/01/01 11:30:40;;;;;;;;;;;;;;;21.08;38.62;100924.30;100136;1362;61452;-82
2022/01/01 11:33:33;;;;;;;;;;;;;;;21.08;38.56;100931.42;100109;1363;61255;-82
2022/01/01 11:35:59;;;;;;;;;;;;;;;21.09;38.50;100931.70;100251;1351;72935;-82
2022/01/01 11:38:46;;;;;;;;;;;;;;;21.10;38.50;100929.57;101182;1347;75629;-81
2022/01/01 11:41:51;;;;;;;;;;;;;;;21.10;38.70;100920.41;101090;1347;61272;-81
2022/01/01 11:44:46;;;;;;;;;;;;;;;21.10;38.61;100919.48;101303;1344;61197;-82
2022/01/01 11:47:18;;;;;;;;;;;;;;;21.10;38.54;100916.42;100571;1353;72706;-82
2022/01/01 11:49:50;;;;;;;;;;;;;;;21.11;38.78;100911.23;100536;1350;74053;-82
2022/01/01 11:52:54;;;;;;;;;;;;;;;21.12;38.60;100906.73;100529;1354;61373;-82
2022/01/01 11:55:31;;;;;;;;;;;;;;;21.11;38.75;100901.35;100162;1359;61251;-82
2022/01/01 11:58:07;;;;;;;;;;;;;;;;;;;;;
2022/01/01 12:00:59;;;;;;;;;;;;;;;21.12;38.74;100900.20;100167;1357;74387;-81
2022/01/01 12:03:26;;;;;;;;;;;;;;;21.13;38.75;100897.48;99559;1362;61183;-82
2022/01/01 12:06:07;;;;;;;;;;;;;;;21.13;38.80;100894.60;99462;1368;61205;-82
2022/01/01 12:09:02;;;;;;;;;;;;;;;21.13;38.70;100891.19;99357;1368;72947;-82
2022/01/01 12:11:49;;;;;;;;;;;;;;;21.14;38.75;100893.85;99335;1365;74766;-81
2022/01/01 12:14:19;;;;;;;;;;;;;;;21.15;38.79;100893.79;99313;1365;61402;-81
2022/01/01 12:16:49;;;;;;;;;;;;;;;21.15;38.71;100893.25;99568;1362;61490;-81
2022/01/01 12:19:24;;;;;;;;;;;;;;;;;;;;;
2022/01/01 12:22:07;;;;;;;;;;;;;;;21.16;38.75;100899.78;99454;1363;75752;-82
2022/01/01 12:25:22;;;;;;;;;;;;;;;21.16;38.93;100905.64;99846;1359;61207;-82
2022/01/01 12:27:48;;;;;;;;;;;;;;;21.17;38.87;100905.79;100024;1359;60664;-82
2022/01/01 12:30:16;;;;;;;;;;;;;;;21.17;38.85;100908.66;100071;1352;72759;-82
2022/01/01 12:32:50;;;;;;;;;;;;;;;21.17;38.92;100909.70;100187;1353;75554;-82
2022/01/01 12:35:36;;;;;;;;;;;;;;;21.17;38.77;100910.77;100148;1356;61219;-82
2022/01/01 12:38:08;;;;;;;;;;;;;;;21.18;38.81;100908.79;100326;1352;61191;-82
2022/01/01 12:40:34;;;;;;;;;;;;;;;21.17;38.77;100913.11;100647;1351;72980;-82
2022/01/01 12:43:12;;;;;;;;;;;;;;;21.18;38.95;100915.40;101157;1347;61410;-82
2022/01/01 12:46:06;;;;;;;;;;;;;;;21.18;38.99;100914.33;101178;1349;61194;-82
2022/01/01 12:48:39;;;;;;;;;;;;;;;21.18;39.01;100912.86;101109;1346;61345;-82
2022/01/01 12:51:09;;;;;;;;;;;;;;;21.18;38.89;100909.52;101175;1345;72642;-82
2022/01/01 12:54:15;;;;;;;;;;;;;;;21.18;38.87;100911.48;100675;1350;73468;-82
2022/01/01 12:56:42;;;;;;;;;;;;;;;21.18;39.05;100906.98;100610;1353;61357;-82
2022/01/01 12:59:09;;;;;;;;;;;;;;;21.18;38.98;100904.63;100580;1350;61273;-82
2022/01/01 13:02:02;;;;;;;;;;;;;;;21.18;39.06;100897.34;100692;1350;73805;-82
2022/01/01 13:04:39;;;;;;;;;;;;;;;21.18;39.04;100901.95;100684;1355;74780;-82
2022/01/01 13:07:24;;;;;;;;;;;;;;;21.18;39.08;100902.31;100584;1349;61309;-82
2022/01/01 13:10:10;;;;;;;;;;;;;;;21.18;39.09;100906.78;100693;1348;61360;-82
2022/01/01 13:12:39;;;;;;;;;;;;;;;21.18;39.24;100903.36;100474;1352;73702;-82
2022/01/01 13:15:33;;;;;;;;;;;;;;;21.19;39.15;100903.52;100711;1348;74952;-82
2022/01/01 13:18:02;;;;;;;;;;;;;;;21.18;39.05;100901.92;100636;1349;61166;-82
2022/01/01 13:20:48;;;;;;;;;;;;;;;21.19;39.03;100910.81;100590;1353;61203;-82
2022/01/01 13:23:17;;;;;;;;;;;;;;;21.19;39.26;100916.92;100792;1347;72929;-82
2022/01/01 13:25:44;;;;;;;;;;;;;;;21.19;39.19;100921.73;100680;1347;74688;-82
2022/01/01 13:28:10;;;;;;;;;;;;;;;21.20;39.29;100927.41;100788;1347;61327;-83
2022/01/01 13:30:56;;;;;;;;;;;;;;;21.20;39.28;100939.04;100788;1350;61335;-82
2022/01/01 13:33:42;;;;;;;;;;;;;;;21.20;39.34;100951.21;101337;1344;61658;-82
2022/01/01 13:36:08;;;;;;;;;;;;;;;21.20;39.35;100949.60;101288;1344;74815;-82
2022/01/01 13:38:57;;;;;;;;;;;;;;;21.20;39.16;100948.52;101343;1344;61242;-82
2022/01/01 13:41:36;;;;;;;;;;;;;;;;;;;;;
2022/01/01 13:44:20;;;;;;;;;;;;;;;21.21;39.40;100937.88;101039;1350;72703;-82
2022/01/01 13:47:13;;;;;;;;;;;;;;;21.22;39.44;100933.56;101254;1344;75177;-83
2022/01/01 13:50:04;;;;;;;;;;;;;;;21.22;39.31;100934.30;101396;1349;61266;-82
2022/01/01 13:52:50;;;;;;;;;;;;;;;21.22;39.26;100934.78;101371;1344;61163;-82
2022/01/01 13:55:38;;;;;;;;;;;;;;;21.22;39.45;100935.65;101258;1344;72745;-82
2022/01/01 13:58:03;;;;;;;;;;;;;;;21.23;39.43;100945.27;101382;1345;75548;-82
2022/01/01 14:00:49;;;;;;;;;;;;;;;;;;;;;
2022/01/01 14:03:23;;;;;;;;;;;;;;;21.24;39.37;100952.73;100855;1348;61606;-82
2022/01/01 14:05:54;;;;;;;;;;;;;;;21.24;39.38;100956.83;101232;1344;73671;-83
2022/01/01 14:08:24;;;;;;;;;;;;;;;21.24;39.34;100958.24;101238;1344;61452;-82
2022/01/01 14:11:10;;;;;;;;;;;;;;;21.24;39.26;100963.25;101223;1344;61304;-82
2022/01/01 14:13:47;;;;;;;;;;;;;;;;;;;;;
2022/01/01 14:16:16;;;;;;;;;;;;;;;21.26;39.43;100982.48;101388;1344;74020;-83
2022/01/01 14:19:22;;;;;;;;;;;;;;;21.26;39.37;100978.15;101412;1341;73569;-83
2022/01/01 14:22:11;;;;;;;;;;;;;;;21.26;39.42;100976.90;101335;1344;61647;-83
2022/01/01 14:25:09;;;;;;;;;;;;;;;21.27;39.46;100982.44;101409;1349;61615;-83
2022/01/01 14:27:54;;;;;;;;;;;;;;;21.27;39.34;100984.55;101060;1352;73777;-82
2022/01/01 14:30:42;;;;;;;;;;;;;;;21.28;39.31;100985.95;101035;1352;73739;-81
2022/01/01 14:33:11;;;;;;;;;;;;;;;21.28;39.26;100988.98;100760;1347;61532;-82
2022/01/01 14:35:49;;;;;;;;;;;;;;;21.29;39.48;100990.90;100758;1347;61144;-82
2022/01/01 14:38:34;;;;;;;;;;;;;;;21.29;39.63;100993.40;100934;1347;73757;-82
2022/01/01 14:41:08;;;;;;;;;;;;;;;21.29;39.37;100995.20;100674;1353;74880;-82
2022/01/01 14:43:50;;;;;;;;;;;;;;;;;;;;;
2022/01/01 14:46:22;;;;;;;;;;;;;;;21.29;39.76;101000.39;100394;1352;60364;-83
2022/01/01 14:49:08;;;;;;;;;;;;;;;21.29;39.52;100997.13;100730;1353;72772;-83
2022/01/01 14:52:05;;;;;;;;;;;;;;;;;;;;;
2022/01/01 14:55:07;;;;;;;;;;;;;;;21.29;39.49;100992.46;100322;1351;61141;-82
2022/01/01 14:58:00;;;;;;;;;;;;;;;;;;;;;
2022/01/01 15:00:33;;;;;;;;;;;;;;;21.29;39.62;100977.43;100363;1351;73099;-82
2022/01/01 15:03:09;;;;;;;;;;;;;;;21.30;39.69;100975.64;100343;1354;75786;-82
2022/01/01 15:05:57;;;;;;;;;;;;;;;21.29;39.66;100978.70;100532;1350;61446;-82
2022/01/01 15:08:30;;;;;;;;;;;;;;;21.29;39.64;100985.50;100367;1353;61319;-82
2022/01/01 15:11:26;;;;;;;;;;;;;;;21.29;39.66;100986.59;100515;1350;71515;-82
2022/01/01 15:13:54;;;;;;;;;;;;;;;21.29;39.66;100991.41;100080;1356;74986;-83
2022/01/01 15:17:32;;;;;;;;;;;;;;;21.32;39.62;100993.75;105002;1298;599719;-83
2022/01/01 15:19:58;;;;;;;;;;;;;;;21.30;39.72;100996.02;105220;1299;58906;-81
2022/01/01 15:22:53;;;;;;;;;;;;;;;21.29;39.70;101001.24;105242;1299;59330;-85
2022/01/01 15:25:19;;;;;;;;;;;;;;;21.30;39.79;101008.58;105254;1301;61436;-84
2022/01/01 15:27:45;;;;;;;;;;;;;;;21.29;39.84;101009.84;105312;1296;73921;-83
2022/01/01 15:33:15;;;;;;;;;;;;;;;21.28;39.81;101015.64;105109;1299;59182;-82
2022/01/01 15:38:59;;;;;;;;;;;;;;;21.28;39.53;101027.84;105355;1299;71463;-88
2022/01/01 15:41:39;;;;;;;;;;;;;;;21.28;39.68;101036.06;105360;1298;72459;-83
2022/01/01 15:44:04;;;;;;;;;;;;;;;21.27;39.55;101041.48;105322;1299;60263;-84
2022/01/01 15:46:35;;;;;;;;;;;;;;;21.27;39.60;101043.10;105371;1299;60329;-83
2022/01/01 15:49:08;;;;;;;;;;;;;;;21.27;39.59;101040.79;105302;1299;72827;-84
2022/01/01 15:52:06;;;;;;;;;;;;;;;21.27;39.64;101040.94;105291;1299;74095;-83
2022/01/01 15:54:45;;;;;;;;;;;;;;;;;;;;;
2022/01/01 15:57:30;;;;;;;;;;;;;;;21.26;39.72;101047.09;104757;1304;60279;-82
2022/01/01 16:00:16;;;;;;;;;;;;;;;21.25;39.74;101048.55;104646;1305;74284;-82
2022/01/01 16:02:57;;;;;;;;;;;;;;;21.25;39.56;101051.06;104531;1305;74411;-86
2022/01/01 16:05:28;;;;;;;;;;;;;;;21.26;39.70;101051.59;104545;1305;60288;-83
2022/01/01 16:07:55;;;;;;;;;;;;;;;21.25;39.67;101050.38;104667;1305;61205;-83
2022/01/01 16:10:33;;;;;;;;;;;;;;;21.27;39.74;101048.48;104796;1305;73666;-84
2022/01/01 16:13:08;;;;;;;;;;;;;;;21.26;39.80;101055.16;104762;1305;74211;-82
2022/01/01 16:15:43;;;;;;;;;;;;;;;21.26;39.78;101057.14;104791;1305;59693;-86
2022/01/01 16:18:13;;;;;;;;;;;;;;;21.25;39.71;101055.71;104901;1305;59687;-84
2022/01/01 16:20:40;;;;;;;;;;;;;;;21.25;39.83;101066.84;104844;1305;72839;-84
2022/01/01 16:23:06;;;;;;;;;;;;;;;21.25;39.80;101065.96;104731;1306;59585;-85
2022/01/01 16:25:35;;;;;;;;;;;;;;;21.24;39.78;101064.21;104904;1305;59071;-83
2022/01/01 16:28:03;;;;;;;;;;;;;;;21.24;39.81;101066.53;104810;1305;60206;-82
2022/01/01 16:30:38;;;;;;;;;;;;;;;21.24;39.75;101066.02;104645;1306;71840;-84
2022/01/01 16:33:24;;;;;;;;;;;;;;;21.24;39.74;101070.50;105306;1299;74158;-82
2022/01/01 16:35:54;;;;;;;;;;;;;;;21.23;39.69;101077.70;105119;1299;60109;-84
2022/01/01 16:38:25;;;;;;;;;;;;;;;21.23;39.84;101078.05;105235;1300;60565;-83
2022/01/01 16:41:07;;;;;;;;;;;;;;;21.23;39.75;101078.42;105231;1299;72834;-80
2022/01/01 16:43:57;;;;;;;;;;;;;;;21.23;39.88;101080.23;105378;1299;73602;-82
2022/01/01 16:46:34;;;;;;;;;;;;;;;21.23;39.75;101087.59;105325;1299;60127;-84
2022/01/01 16:49:02;;;;;;;;;;;;;;;21.22;39.83;101094.23;105291;1299;60246;-82
2022/01/01 16:51:49;;;;;;;;;;;;;;;21.23;39.68;101099.40;105264;1299;73451;-83
2022/01/01 16:54:17;;;;;;;;;;;;;;;21.23;39.85;101100.30;105313;1297;74064;-82
2022/01/01 16:57:01;;;;;;;;;;;;;;;21.23;39.85;101103.15;105222;1298;60235;-83
2022/01/01 16:59:29;;;;;;;;;;;;;;;21.22;39.85;101110.73;105375;1298;60387;-82
2022/01/01 17:01:55;;;;;;;;;;;;;;;21.23;39.88;101111.92;105244;1299;72528;-82
2022/01/01 17:04:54;;;;;;;;;;;;;;;21.22;39.72;101114.66;105426;1299;74177;-83
2022/01/01 17:07:26;;;;;;;;;;;;;;;21.23;39.99;101113.36;105282;1299;60113;-83
2022/01/01 17:10:00;;;;;;;;;;;;;;;21.22;39.93;101115.00;105288;1299;59483;-85
2022/01/01 17:12:40;;;;;;;;;;;;;;;21.22;39.74;101113.91;105267;1299;72663;-84
2022/01/01 17:15:09;;;;;;;;;;;;;;;21.22;39.94;101113.56;105427;1297;73110;-84
2022/01/01 17:18:12;;;;;;;;;;;;;;;21.22;39.88;101116.27;105272;1299;60115;-85
2022/01/01 17:20:52;;;;;;;;;;;;;;;;;;;;;
2022/01/01 17:24:00;;;;;;;;;;;;;;;21.23;39.87;101117.85;104916;1306;72628;-87
2022/01/01 17:26:48;;;;;;;;;;;;;;;21.23;39.87;101122.48;104943;1306;73248;-84
2022/01/01 17:29:28;;;;;;;;;;;;;;;21.23;39.87;101127.86;104940;1305;60389;-82
2022/01/01 17:32:13;;;;;;;;;;;;;;;21.23;39.91;101126.39;104907;1306;60470;-83
2022/01/01 17:34:58;;;;;;;;;;;;;;;21.24;39.74;101137.82;104859;1305;74062;-84
2022/01/01 17:37:41;;;;;;;;;;;;;;;21.24;39.84;101142.64;104893;1305;74299;-82